sensor_id;sensor_type;location;lat;lon;timestamp;pressure;altitude;pressure_sealevel;temperature;humidity
77062;BME280;65989;51.686;5.138;2023-04-03T00:01:00;103111.75;;;1.59;82.94
77062;BME280;65989;51.686;5.138;2023-04-03T00:03:25;103116.31;;;1.57;83.13
77062;BME280;65989;51.686;5.138;2023-04-03T00:05:51;103116.44;;;1.55;83.04
77062;BME280;65989;51.686;5.138;2023-04-03T00:08:16;103114.53;;;1.47;82.97
77062;BME280;65989;51.686;5.138;2023-04-03T00:10:42;103127.69;;;1.46;83.13
77062;BME280;65989;51.686;5.138;2023-04-03T00:13:08;103128.25;;;1.40;83.36
77062;BME280;65989;51.686;5.138;2023-04-03T00:15:34;103129.88;;;1.41;83.16
77062;BME280;65989;51.686;5.138;2023-04-03T00:18:01;103125.88;;;1.37;83.00
77062;BME280;65989;51.686;5.138;2023-04-03T00:20:27;103125.19;;;1.34;83.35
77062;BME280;65989;51.686;5.138;2023-04-03T00:22:53;103127.97;;;1.33;83.69
77062;BME280;65989;51.686;5.138;2023-04-03T00:25:18;103134.13;;;1.32;83.48
77062;BME280;65989;51.686;5.138;2023-04-03T00:27:43;103128.91;;;1.32;83.45
77062;BME280;65989;51.686;5.138;2023-04-03T00:30:13;103136.22;;;1.28;83.35
77062;BME280;65989;51.686;5.138;2023-04-03T00:32:39;103137.16;;;1.27;83.67
77062;BME280;65989;51.686;5.138;2023-04-03T00:35:04;103131.78;;;1.29;83.61
77062;BME280;65989;51.686;5.138;2023-04-03T00:37:30;103137.56;;;1.23;83.51
77062;BME280;65989;51.686;5.138;2023-04-03T00:39:56;103131.38;;;1.24;83.50
77062;BME280;65989;51.686;5.138;2023-04-03T00:42:21;103132.91;;;1.26;83.53
77062;BME280;65989;51.686;5.138;2023-04-03T00:47:16;103137.88;;;1.29;83.58
77062;BME280;65989;51.686;5.138;2023-04-03T00:49:42;103137.16;;;1.27;83.70
77062;BME280;65989;51.686;5.138;2023-04-03T00:52:12;103144.16;;;1.27;83.88
77062;BME280;65989;51.686;5.138;2023-04-03T00:54:41;103145.00;;;1.27;83.80
77062;BME280;65989;51.686;5.138;2023-04-03T00:57:09;103140.47;;;1.29;83.83
77062;BME280;65989;51.686;5.138;2023-04-03T00:59:39;103145.56;;;1.31;83.75
77062;BME280;65989;51.686;5.138;2023-04-03T01:02:06;103148.72;;;1.34;83.66
77062;BME280;65989;51.686;5.138;2023-04-03T01:04:35;103144.19;;;1.37;83.67
77062;BME280;65989;51.686;5.138;2023-04-03T01:07:07;103148.59;;;1.36;83.70
77062;BME280;65989;51.686;5.138;2023-04-03T01:09:34;103157.13;;;1.38;83.36
77062;BME280;65989;51.686;5.138;2023-04-03T01:12:34;103153.81;;;1.36;83.37
77062;BME280;65989;51.686;5.138;2023-04-03T01:15:01;103150.50;;;1.34;83.50
77062;BME280;65989;51.686;5.138;2023-04-03T01:25:26;103147.44;;;1.19;83.45
77062;BME280;65989;51.686;5.138;2023-04-03T01:27:52;103151.72;;;1.20;83.35
77062;BME280;65989;51.686;5.138;2023-04-03T01:30:20;103149.09;;;1.20;83.46
77062;BME280;65989;51.686;5.138;2023-04-03T01:32:46;103151.03;;;1.18;83.66
77062;BME280;65989;51.686;5.138;2023-04-03T01:35:11;103154.84;;;1.14;83.78
77062;BME280;65989;51.686;5.138;2023-04-03T01:37:37;103147.28;;;1.11;83.57
77062;BME280;65989;51.686;5.138;2023-04-03T01:40:04;103154.03;;;1.13;83.75
77062;BME280;65989;51.686;5.138;2023-04-03T01:42:29;103153.47;;;1.10;83.67
77062;BME280;65989;51.686;5.138;2023-04-03T01:44:55;103149.88;;;1.11;83.68
77062;BME280;65989;51.686;5.138;2023-04-03T01:47:21;103154.41;;;1.09;83.64
77062;BME280;65989;51.686;5.138;2023-04-03T01:49:46;103157.28;;;1.06;83.92
77062;BME280;65989;51.686;5.138;2023-04-03T01:52:12;103151.50;;;1.02;83.95
77062;BME280;65989;51.686;5.138;2023-04-03T01:54:37;103158.66;;;1.00;83.71
77062;BME280;65989;51.686;5.138;2023-04-03T01:57:03;103158.78;;;0.98;84.03
77062;BME280;65989;51.686;5.138;2023-04-03T01:59:28;103152.19;;;0.94;84.05
77062;BME280;65989;51.686;5.138;2023-04-03T02:01:53;103158.63;;;0.90;83.89
77062;BME280;65989;51.686;5.138;2023-04-03T02:04:19;103158.03;;;0.86;84.03
77062;BME280;65989;51.686;5.138;2023-04-03T02:06:45;103152.00;;;0.86;84.11
77062;BME280;65989;51.686;5.138;2023-04-03T02:09:10;103151.44;;;0.82;84.16
77062;BME280;65989;51.686;5.138;2023-04-03T02:11:35;103158.44;;;0.82;84.21
77062;BME280;65989;51.686;5.138;2023-04-03T02:14:01;103159.38;;;0.81;83.93
77062;BME280;65989;51.686;5.138;2023-04-03T02:16:27;103162.00;;;0.81;84.28
77062;BME280;65989;51.686;5.138;2023-04-03T02:18:54;103162.84;;;0.81;84.07
77062;BME280;65989;51.686;5.138;2023-04-03T02:21:19;103164.50;;;0.82;84.35
77062;BME280;65989;51.686;5.138;2023-04-03T02:23:44;103163.50;;;0.83;84.42
77062;BME280;65989;51.686;5.138;2023-04-03T02:26:13;103166.97;;;0.84;84.20
77062;BME280;65989;51.686;5.138;2023-04-03T02:28:39;103174.94;;;0.82;84.07
77062;BME280;65989;51.686;5.138;2023-04-03T02:31:05;103175.03;;;0.81;84.17
77062;BME280;65989;51.686;5.138;2023-04-03T02:33:32;103179.56;;;0.79;84.45
77062;BME280;65989;51.686;5.138;2023-04-03T02:35:58;103183.84;;;0.80;84.07
77062;BME280;65989;51.686;5.138;2023-04-03T02:38:24;103184.78;;;0.79;84.20
77062;BME280;65989;51.686;5.138;2023-04-03T02:40:50;103185.75;;;0.78;84.21
77062;BME280;65989;51.686;5.138;2023-04-03T02:43:16;103190.97;;;0.78;84.59
77062;BME280;65989;51.686;5.138;2023-04-03T02:45:41;103184.94;;;0.77;84.54
77062;BME280;65989;51.686;5.138;2023-04-03T02:48:07;103186.00;;;0.74;84.48
77062;BME280;65989;51.686;5.138;2023-04-03T02:50:32;103183.66;;;0.71;84.50
77062;BME280;65989;51.686;5.138;2023-04-03T02:52:57;103186.41;;;0.70;84.41
77062;BME280;65989;51.686;5.138;2023-04-03T02:55:23;103191.06;;;0.66;84.61
77062;BME280;65989;51.686;5.138;2023-04-03T02:57:48;103188.56;;;0.65;84.42
77062;BME280;65989;51.686;5.138;2023-04-03T03:00:13;103186.09;;;0.63;84.46
77062;BME280;65989;51.686;5.138;2023-04-03T03:02:40;103176.16;;;0.57;84.62
77062;BME280;65989;51.686;5.138;2023-04-03T03:05:06;103178.31;;;0.52;84.76
77062;BME280;65989;51.686;5.138;2023-04-03T03:07:31;103180.09;;;0.51;84.43
77062;BME280;65989;51.686;5.138;2023-04-03T03:09:57;103181.75;;;0.52;84.63
77062;BME280;65989;51.686;5.138;2023-04-03T03:12:22;103182.84;;;0.50;84.80
77062;BME280;65989;51.686;5.138;2023-04-03T03:14:49;103191.38;;;0.52;84.96
77062;BME280;65989;51.686;5.138;2023-04-03T03:17:14;103189.00;;;0.49;84.94
77062;BME280;65989;51.686;5.138;2023-04-03T03:19:40;103189.16;;;0.47;85.00
77062;BME280;65989;51.686;5.138;2023-04-03T03:22:05;103183.94;;;0.47;84.76
77062;BME280;65989;51.686;5.138;2023-04-03T03:24:31;103193.41;;;0.48;84.96
77062;BME280;65989;51.686;5.138;2023-04-03T03:26:56;103187.25;;;0.49;84.91
77062;BME280;65989;51.686;5.138;2023-04-03T03:29:22;103189.97;;;0.48;84.96
77062;BME280;65989;51.686;5.138;2023-04-03T03:31:47;103195.44;;;0.44;85.20
77062;BME280;65989;51.686;5.138;2023-04-03T03:34:12;103197.09;;;0.46;84.90
77062;BME280;65989;51.686;5.138;2023-04-03T03:36:38;103196.97;;;0.47;85.33
77062;BME280;65989;51.686;5.138;2023-04-03T03:39:04;103202.56;;;0.42;85.39
77062;BME280;65989;51.686;5.138;2023-04-03T03:41:29;103211.22;;;0.43;85.22
77062;BME280;65989;51.686;5.138;2023-04-03T03:43:54;103201.75;;;0.42;85.25
77062;BME280;65989;51.686;5.138;2023-04-03T03:46:20;103208.97;;;0.38;85.42
77062;BME280;65989;51.686;5.138;2023-04-03T03:48:45;103210.53;;;0.41;85.23
77062;BME280;65989;51.686;5.138;2023-04-03T03:51:11;103216.69;;;0.40;85.16
77062;BME280;65989;51.686;5.138;2023-04-03T03:53:36;103213.22;;;0.39;85.21
77062;BME280;65989;51.686;5.138;2023-04-03T03:56:02;103218.00;;;0.34;85.48
77062;BME280;65989;51.686;5.138;2023-04-03T03:58:27;103214.56;;;0.34;85.42
77062;BME280;65989;51.686;5.138;2023-04-03T04:00:52;103213.31;;;0.28;85.19
77062;BME280;65989;51.686;5.138;2023-04-03T04:03:18;103216.72;;;0.28;85.51
77062;BME280;65989;51.686;5.138;2023-04-03T04:05:43;103214.00;;;0.30;85.39
77062;BME280;65989;51.686;5.138;2023-04-03T04:08:09;103209.84;;;0.27;85.75
77062;BME280;65989;51.686;5.138;2023-04-03T04:10:35;103206.44;;;0.27;85.64
77062;BME280;65989;51.686;5.138;2023-04-03T04:13:02;103215.31;;;0.24;85.45
77062;BME280;65989;51.686;5.138;2023-04-03T04:15:27;103218.06;;;0.23;85.55
77062;BME280;65989;51.686;5.138;2023-04-03T04:17:53;103223.53;;;0.20;85.89
77062;BME280;65989;51.686;5.138;2023-04-03T04:20:18;103216.75;;;0.17;85.74
77062;BME280;65989;51.686;5.138;2023-04-03T04:22:44;103220.47;;;0.14;85.87
77062;BME280;65989;51.686;5.138;2023-04-03T04:25:09;103219.28;;;0.07;85.91
77062;BME280;65989;51.686;5.138;2023-04-03T04:27:35;103220.25;;;0.06;86.14
77062;BME280;65989;51.686;5.138;2023-04-03T04:30:02;103217.88;;;0.03;85.96
77062;BME280;65989;51.686;5.138;2023-04-03T04:32:28;103221.56;;;0.01;86.17
77062;BME280;65989;51.686;5.138;2023-04-03T04:34:53;103212.47;;;-0.05;86.04
77062;BME280;65989;51.686;5.138;2023-04-03T04:37:19;103214.38;;;-0.07;85.89
77062;BME280;65989;51.686;5.138;2023-04-03T04:39:45;103224.66;;;-0.06;86.36
77062;BME280;65989;51.686;5.138;2023-04-03T04:42:10;103218.75;;;-0.08;86.31
77062;BME280;65989;51.686;5.138;2023-04-03T04:44:38;103218.75;;;-0.08;86.46
77062;BME280;65989;51.686;5.138;2023-04-03T04:47:04;103225.84;;;-0.10;86.30
77062;BME280;65989;51.686;5.138;2023-04-03T04:49:29;103226.69;;;-0.09;86.42
77062;BME280;65989;51.686;5.138;2023-04-03T04:51:54;103225.63;;;-0.07;86.29
77062;BME280;65989;51.686;5.138;2023-04-03T04:54:20;103230.72;;;-0.05;86.67
77062;BME280;65989;51.686;5.138;2023-04-03T04:56:46;103235.94;;;-0.05;86.57
77062;BME280;65989;51.686;5.138;2023-04-03T04:59:11;103235.81;;;-0.04;86.79
77062;BME280;65989;51.686;5.138;2023-04-03T05:01:40;103244.09;;;0.02;86.77
77062;BME280;65989;51.686;5.138;2023-04-03T05:04:05;103241.47;;;0.02;86.67
77062;BME280;65989;51.686;5.138;2023-04-03T05:06:30;103240.38;;;0.04;86.72
77062;BME280;65989;51.686;5.138;2023-04-03T05:08:57;103250.81;;;0.04;86.75
77062;BME280;65989;51.686;5.138;2023-04-03T05:11:23;103247.41;;;0.04;86.87
77062;BME280;65989;51.686;5.138;2023-04-03T05:13:48;103244.09;;;0.02;87.05
77062;BME280;65989;51.686;5.138;2023-04-03T05:16:14;103241.34;;;0.03;86.81
77062;BME280;65989;51.686;5.138;2023-04-03T05:18:39;103244.91;;;0.02;87.22
77062;BME280;65989;51.686;5.138;2023-04-03T05:21:04;103249.31;;;0.02;87.17
77062;BME280;65989;51.686;5.138;2023-04-03T05:23:30;103247.16;;;0.07;87.22
77062;BME280;65989;51.686;5.138;2023-04-03T05:25:55;103253.06;;;0.09;87.00
77062;BME280;65989;51.686;5.138;2023-04-03T05:28:21;103240.63;;;0.12;87.10
77062;BME280;65989;51.686;5.138;2023-04-03T05:30:55;103242.41;;;0.12;87.19
77062;BME280;65989;51.686;5.138;2023-04-03T05:33:21;103249.13;;;0.14;87.37
77062;BME280;65989;51.686;5.138;2023-04-03T05:35:46;103252.59;;;0.15;87.27
77062;BME280;65989;51.686;5.138;2023-04-03T05:38:12;103261.09;;;0.17;86.87
77062;BME280;65989;51.686;5.138;2023-04-03T05:40:37;103262.88;;;0.17;87.04
77062;BME280;65989;51.686;5.138;2023-04-03T05:43:03;103256.59;;;0.19;87.11
77062;BME280;65989;51.686;5.138;2023-04-03T05:45:29;103263.22;;;0.23;86.88
77062;BME280;65989;51.686;5.138;2023-04-03T05:47:54;103261.34;;;0.47;87.18
77062;BME280;65989;51.686;5.138;2023-04-03T05:50:20;103267.81;;;1.37;86.94
77062;BME280;65989;51.686;5.138;2023-04-03T05:52:47;103268.84;;;2.46;86.26
77062;BME280;65989;51.686;5.138;2023-04-03T05:55:15;103272.38;;;3.32;85.67
77062;BME280;65989;51.686;5.138;2023-04-03T05:57:40;103276.59;;;3.80;84.11
77062;BME280;65989;51.686;5.138;2023-04-03T06:00:08;103273.66;;;4.19;83.27
77062;BME280;65989;51.686;5.138;2023-04-03T06:02:35;103278.03;;;4.29;81.91
77062;BME280;65989;51.686;5.138;2023-04-03T06:05:01;103269.94;;;4.40;80.92
77062;BME280;65989;51.686;5.138;2023-04-03T06:07:27;103266.25;;;4.51;79.86
77062;BME280;65989;51.686;5.138;2023-04-03T06:09:55;103272.47;;;4.50;78.49
77062;BME280;65989;51.686;5.138;2023-04-03T06:12:21;103271.81;;;4.12;78.04
77062;BME280;65989;51.686;5.138;2023-04-03T06:14:46;103272.59;;;3.76;77.61
77062;BME280;65989;51.686;5.138;2023-04-03T06:17:13;103278.94;;;3.46;77.61
77062;BME280;65989;51.686;5.138;2023-04-03T06:19:39;103284.69;;;3.31;77.65
77062;BME280;65989;51.686;5.138;2023-04-03T06:22:05;103282.63;;;3.25;77.96
77062;BME280;65989;51.686;5.138;2023-04-03T06:24:30;103291.19;;;3.17;77.94
77062;BME280;65989;51.686;5.138;2023-04-03T06:26:56;103292.00;;;3.18;77.95
77062;BME280;65989;51.686;5.138;2023-04-03T06:29:22;103292.81;;;3.18;78.00
77062;BME280;65989;51.686;5.138;2023-04-03T06:31:48;103291.19;;;3.17;77.54
77062;BME280;65989;51.686;5.138;2023-04-03T06:34:15;103300.97;;;3.25;77.68
77062;BME280;65989;51.686;5.138;2023-04-03T06:36:41;103295.72;;;3.25;77.69
77062;BME280;65989;51.686;5.138;2023-04-03T06:39:09;103297.38;;;3.26;77.20
77062;BME280;65989;51.686;5.138;2023-04-03T06:41:38;103299.41;;;3.32;77.31
77062;BME280;65989;51.686;5.138;2023-04-03T06:44:03;103291.66;;;3.40;76.52
77062;BME280;65989;51.686;5.138;2023-04-03T06:46:28;103299.00;;;3.37;76.33
77062;BME280;65989;51.686;5.138;2023-04-03T06:48:54;103300.25;;;3.33;76.05
77062;BME280;65989;51.686;5.138;2023-04-03T06:51:25;103312.91;;;3.37;75.49
77062;BME280;65989;51.686;5.138;2023-04-03T06:53:53;103296.66;;;3.34;75.26
77062;BME280;65989;51.686;5.138;2023-04-03T06:56:19;103309.88;;;3.32;75.17
77062;BME280;65989;51.686;5.138;2023-04-03T06:58:45;103304.28;;;3.27;74.82
77062;BME280;65989;51.686;5.138;2023-04-03T07:01:13;103312.22;;;3.35;74.87
77062;BME280;65989;51.686;5.138;2023-04-03T07:03:39;103305.44;;;3.42;74.91
77062;BME280;65989;51.686;5.138;2023-04-03T07:06:05;103307.34;;;3.50;74.87
77062;BME280;65989;51.686;5.138;2023-04-03T07:08:32;103310.50;;;3.54;74.31
77062;BME280;65989;51.686;5.138;2023-04-03T07:10:58;103313.81;;;3.56;74.17
77062;BME280;65989;51.686;5.138;2023-04-03T07:13:23;103317.81;;;3.60;73.93
77062;BME280;65989;51.686;5.138;2023-04-03T07:15:49;103321.47;;;3.67;73.80
77062;BME280;65989;51.686;5.138;2023-04-03T07:18:15;103313.78;;;3.66;73.69
77062;BME280;65989;51.686;5.138;2023-04-03T07:20:42;103324.66;;;3.71;73.01
77062;BME280;65989;51.686;5.138;2023-04-03T07:23:08;103332.06;;;3.76;72.76
77062;BME280;65989;51.686;5.138;2023-04-03T07:25:33;103325.84;;;3.77;72.77
77062;BME280;65989;51.686;5.138;2023-04-03T07:27:59;103328.47;;;3.77;72.64
77062;BME280;65989;51.686;5.138;2023-04-03T07:30:24;103321.97;;;3.81;72.55
77062;BME280;65989;51.686;5.138;2023-04-03T07:32:50;103318.47;;;3.90;72.54
77062;BME280;65989;51.686;5.138;2023-04-03T07:35:16;103321.19;;;3.98;72.55
77062;BME280;65989;51.686;5.138;2023-04-03T07:37:42;103324.19;;;4.03;72.28
77062;BME280;65989;51.686;5.138;2023-04-03T07:40:08;103326.81;;;4.03;72.16
77062;BME280;65989;51.686;5.138;2023-04-03T07:42:35;103320.31;;;4.08;72.55
77062;BME280;65989;51.686;5.138;2023-04-03T07:45:02;103322.50;;;4.12;72.27
77062;BME280;65989;51.686;5.138;2023-04-03T07:47:27;103324.28;;;4.12;71.94
77062;BME280;65989;51.686;5.138;2023-04-03T07:49:53;103325.41;;;4.09;72.10
77062;BME280;65989;51.686;5.138;2023-04-03T07:52:18;103329.06;;;4.16;72.57
77062;BME280;65989;51.686;5.138;2023-04-03T07:54:44;103335.09;;;4.27;72.40
77062;BME280;65989;51.686;5.138;2023-04-03T07:57:09;103339.75;;;4.33;72.06
77062;BME280;65989;51.686;5.138;2023-04-03T07:59:34;103341.63;;;4.41;71.55
77062;BME280;65989;51.686;5.138;2023-04-03T08:02:00;103343.38;;;4.50;71.64
77062;BME280;65989;51.686;5.138;2023-04-03T08:04:26;103331.50;;;4.64;72.23
77062;BME280;65989;51.686;5.138;2023-04-03T08:06:52;103329.03;;;4.62;71.10
77062;BME280;65989;51.686;5.138;2023-04-03T08:09:18;103329.25;;;4.69;70.97
77062;BME280;65989;51.686;5.138;2023-04-03T08:11:45;103330.69;;;4.63;70.71
77062;BME280;65989;51.686;5.138;2023-04-03T08:14:10;103333.31;;;4.63;70.34
77062;BME280;65989;51.686;5.138;2023-04-03T08:16:41;103332.19;;;4.66;70.55
77062;BME280;65989;51.686;5.138;2023-04-03T08:19:06;103331.94;;;4.77;69.81
77062;BME280;65989;51.686;5.138;2023-04-03T08:21:33;103336.56;;;4.84;69.48
77062;BME280;65989;51.686;5.138;2023-04-03T08:23:58;103341.09;;;4.91;69.60
77062;BME280;65989;51.686;5.138;2023-04-03T08:26:24;103340.09;;;4.92;68.44
77062;BME280;65989;51.686;5.138;2023-04-03T08:28:51;103342.09;;;4.99;67.35
77062;BME280;65989;51.686;5.138;2023-04-03T08:31:18;103341.47;;;4.97;66.59
77062;BME280;65989;51.686;5.138;2023-04-03T08:33:44;103342.03;;;5.08;65.88
77062;BME280;65989;51.686;5.138;2023-04-03T08:36:27;103344.56;;;5.18;66.02
77062;BME280;65989;51.686;5.138;2023-04-03T08:38:54;103344.25;;;5.21;63.67
77062;BME280;65989;51.686;5.138;2023-04-03T08:41:24;103344.56;;;5.18;63.74
77062;BME280;65989;51.686;5.138;2023-04-03T08:47:23;103349.75;;;5.36;61.45
77062;BME280;65989;51.686;5.138;2023-04-03T08:50:12;103346.25;;;5.28;61.29
77062;BME280;65989;51.686;5.138;2023-04-03T08:52:42;103346.88;;;5.21;59.66
77062;BME280;65989;51.686;5.138;2023-04-03T08:55:24;103366.31;;;5.29;60.07
77062;BME280;65989;51.686;5.138;2023-04-03T08:58:00;103348.88;;;5.28;58.25
77062;BME280;65989;51.686;5.138;2023-04-03T09:00:30;103362.38;;;5.33;57.60
77062;BME280;65989;51.686;5.138;2023-04-03T09:02:58;103368.97;;;5.37;57.22
77062;BME280;65989;51.686;5.138;2023-04-03T09:05:41;103361.13;;;5.45;55.45
77062;BME280;65989;51.686;5.138;2023-04-03T09:08:24;103365.72;;;5.43;54.90
77062;BME280;65989;51.686;5.138;2023-04-03T09:11:09;103358.81;;;5.42;51.84
77062;BME280;65989;51.686;5.138;2023-04-03T09:16:20;103359.59;;;5.61;54.94
77062;BME280;65989;51.686;5.138;2023-04-03T09:18:56;103350.53;;;5.63;52.28
77062;BME280;65989;51.686;5.138;2023-04-03T09:21:31;103346.25;;;5.62;50.70
77062;BME280;65989;51.686;5.138;2023-04-03T09:24:01;103348.28;;;5.68;49.05
77062;BME280;65989;51.686;5.138;2023-04-03T09:26:33;103346.13;;;5.72;50.96
77062;BME280;65989;51.686;5.138;2023-04-03T09:29:02;103342.53;;;5.73;50.07
77062;BME280;65989;51.686;5.138;2023-04-03T09:31:37;103350.44;;;5.81;50.55
77062;BME280;65989;51.686;5.138;2023-04-03T09:34:08;103345.53;;;5.87;48.23
77062;BME280;65989;51.686;5.138;2023-04-03T09:36:39;103341.94;;;5.88;46.68
77062;BME280;65989;51.686;5.138;2023-04-03T09:39:10;103339.28;;;5.88;46.68
77062;BME280;65989;51.686;5.138;2023-04-03T09:41:35;103332.72;;;5.92;44.68
77062;BME280;65989;51.686;5.138;2023-04-03T09:44:01;103337.34;;;5.98;44.23
77062;BME280;65989;51.686;5.138;2023-04-03T09:46:31;103333.72;;;5.99;44.65
77062;BME280;65989;51.686;5.138;2023-04-03T09:49:03;103331.78;;;6.01;44.97
77062;BME280;65989;51.686;5.138;2023-04-03T09:51:30;103327.38;;;6.10;47.02
77062;BME280;65989;51.686;5.138;2023-04-03T09:53:58;103332.81;;;6.17;49.53
77062;BME280;65989;51.686;5.138;2023-04-03T09:56:28;103327.25;;;6.20;46.75
77062;BME280;65989;51.686;5.138;2023-04-03T10:04:10;103308.50;;;6.23;49.38
77062;BME280;65989;51.686;5.138;2023-04-03T10:06:41;103311.94;;;6.32;46.73
77062;BME280;65989;51.686;5.138;2023-04-03T10:09:26;103307.50;;;6.32;44.30
77062;BME280;65989;51.686;5.138;2023-04-03T10:12:10;103315.91;;;6.36;43.63
77062;BME280;65989;51.686;5.138;2023-04-03T10:23:02;103322.00;;;6.53;41.71
77062;BME280;65989;51.686;5.138;2023-04-03T10:25:38;103310.63;;;6.52;41.71
77062;BME280;65989;51.686;5.138;2023-04-03T10:28:09;103300.09;;;6.52;39.89
77062;BME280;65989;51.686;5.138;2023-04-03T10:43:59;103282.97;;;6.65;40.81
77062;BME280;65989;51.686;5.138;2023-04-03T10:46:48;103281.00;;;6.75;42.76
77062;BME280;65989;51.686;5.138;2023-04-03T10:49:18;103288.22;;;6.81;41.96
77062;BME280;65989;51.686;5.138;2023-04-03T10:51:48;103280.31;;;6.90;43.00
77062;BME280;65989;51.686;5.138;2023-04-03T10:54:26;103278.50;;;6.90;41.50
77062;BME280;65989;51.686;5.138;2023-04-03T10:57:09;103280.63;;;6.86;41.29
77062;BME280;65989;51.686;5.138;2023-04-03T11:02:24;103264.63;;;6.96;41.23
77062;BME280;65989;51.686;5.138;2023-04-03T11:04:54;103263.63;;;6.97;39.83
77062;BME280;65989;51.686;5.138;2023-04-03T11:07:33;103251.44;;;6.96;39.59
77062;BME280;65989;51.686;5.138;2023-04-03T11:10:10;103255.41;;;7.00;40.08
77062;BME280;65989;51.686;5.138;2023-04-03T11:12:44;103263.97;;;7.02;38.82
77062;BME280;65989;51.686;5.138;2023-04-03T11:15:15;103253.94;;;6.98;37.82
77062;BME280;65989;51.686;5.138;2023-04-03T11:17:46;103256.22;;;7.01;37.19
77062;BME280;65989;51.686;5.138;2023-04-03T11:20:20;103257.03;;;7.01;37.29
77062;BME280;65989;51.686;5.138;2023-04-03T11:23:16;103253.75;;;6.99;38.04
77062;BME280;65989;51.686;5.138;2023-04-03T11:25:46;103253.72;;;7.08;36.56
77062;BME280;65989;51.686;5.138;2023-04-03T11:28:14;103248.13;;;7.11;36.40
77062;BME280;65989;51.686;5.138;2023-04-03T11:35:57;103252.72;;;7.17;35.57
77062;BME280;65989;51.686;5.138;2023-04-03T11:38:31;103240.53;;;7.16;36.07
77062;BME280;65989;51.686;5.138;2023-04-03T11:41:04;103242.44;;;7.30;34.27
77062;BME280;65989;51.686;5.138;2023-04-03T11:43:33;103242.94;;;7.34;33.34
77062;BME280;65989;51.686;5.138;2023-04-03T11:46:02;103236.00;;;7.33;34.11
77062;BME280;65989;51.686;5.138;2023-04-03T11:50:54;103236.78;;;7.42;37.55
77062;BME280;65989;51.686;5.138;2023-04-03T11:53:37;103229.66;;;7.51;38.26
77062;BME280;65989;51.686;5.138;2023-04-03T12:01:47;103213.63;;;7.60;36.42
77062;BME280;65989;51.686;5.138;2023-04-03T12:04:15;103219.94;;;7.51;33.93
77062;BME280;65989;51.686;5.138;2023-04-03T12:06:49;103225.56;;;7.48;35.51
77062;BME280;65989;51.686;5.138;2023-04-03T12:09:27;103221.72;;;7.51;35.47
77062;BME280;65989;51.686;5.138;2023-04-03T12:11:55;103207.53;;;7.52;35.38
77062;BME280;65989;51.686;5.138;2023-04-03T12:14:22;103212.97;;;7.58;35.17
77062;BME280;65989;51.686;5.138;2023-04-03T12:16:52;103208.28;;;7.69;34.96
77062;BME280;65989;51.686;5.138;2023-04-03T12:24:30;103197.06;;;7.67;36.02
77062;BME280;65989;51.686;5.138;2023-04-03T12:45:44;103180.09;;;7.92;37.62
77062;BME280;65989;51.686;5.138;2023-04-03T12:48:17;103184.19;;;7.95;38.02
77062;BME280;65989;51.686;5.138;2023-04-03T12:50:45;103182.53;;;7.94;39.55
77062;BME280;65989;51.686;5.138;2023-04-03T12:53:12;103187.47;;;7.97;37.32
77062;BME280;65989;51.686;5.138;2023-04-03T12:55:38;103168.53;;;7.94;37.36
77062;BME280;65989;51.686;5.138;2023-04-03T12:58:23;103172.25;;;7.99;38.33
77062;BME280;65989;51.686;5.138;2023-04-03T13:01:11;103167.63;;;8.01;37.54
77062;BME280;65989;51.686;5.138;2023-04-03T13:03:43;103156.97;;;7.95;37.64
77062;BME280;65989;51.686;5.138;2023-04-03T13:06:16;103154.13;;;7.96;37.78
77062;BME280;65989;51.686;5.138;2023-04-03T13:08:57;103150.31;;;7.99;38.70
77062;BME280;65989;51.686;5.138;2023-04-03T13:11:26;103148.16;;;8.02;39.19
77062;BME280;65989;51.686;5.138;2023-04-03T13:14:00;103145.59;;;8.09;39.08
77062;BME280;65989;51.686;5.138;2023-04-03T13:16:26;103151.06;;;8.07;39.41
77062;BME280;65989;51.686;5.138;2023-04-03T13:18:53;103148.09;;;8.11;39.65
77062;BME280;65989;51.686;5.138;2023-04-03T13:21:22;103138.31;;;8.11;40.04
77062;BME280;65989;51.686;5.138;2023-04-03T13:23:52;103138.69;;;8.08;38.54
77062;BME280;65989;51.686;5.138;2023-04-03T13:26:20;103144.41;;;8.12;40.15
77062;BME280;65989;51.686;5.138;2023-04-03T13:28:47;103142.41;;;8.14;39.60
77062;BME280;65989;51.686;5.138;2023-04-03T13:31:19;103145.19;;;8.20;38.92
77062;BME280;65989;51.686;5.138;2023-04-03T13:33:57;103136.91;;;8.24;39.66
77062;BME280;65989;51.686;5.138;2023-04-03T13:36:27;103128.78;;;8.25;40.07
77062;BME280;65989;51.686;5.138;2023-04-03T13:41:35;103141.06;;;8.33;41.06
77062;BME280;65989;51.686;5.138;2023-04-03T13:46:59;103125.34;;;8.40;42.09
77062;BME280;65989;51.686;5.138;2023-04-03T13:51:59;103129.63;;;8.41;40.21
77062;BME280;65989;51.686;5.138;2023-04-03T13:54:35;103125.16;;;8.41;40.49
77062;BME280;65989;51.686;5.138;2023-04-03T13:57:02;103123.41;;;8.33;40.31
77062;BME280;65989;51.686;5.138;2023-04-03T13:59:33;103114.94;;;8.38;40.38
77062;BME280;65989;51.686;5.138;2023-04-03T14:04:32;103116.59;;;8.39;39.46
77062;BME280;65989;51.686;5.138;2023-04-03T14:07:12;103118.84;;;8.27;39.84
77062;BME280;65989;51.686;5.138;2023-04-03T14:09:38;103122.41;;;8.34;40.86
77062;BME280;65989;51.686;5.138;2023-04-03T14:12:12;103111.56;;;8.29;41.28
77062;BME280;65989;51.686;5.138;2023-04-03T14:14:40;103113.50;;;8.35;39.80
77062;BME280;65989;51.686;5.138;2023-04-03T14:17:21;103121.06;;;8.39;40.30
77062;BME280;65989;51.686;5.138;2023-04-03T14:19:48;103118.50;;;8.30;41.38
77062;BME280;65989;51.686;5.138;2023-04-03T14:22:23;103119.78;;;8.34;40.31
77062;BME280;65989;51.686;5.138;2023-04-03T14:24:50;103110.72;;;8.29;39.65
77062;BME280;65989;51.686;5.138;2023-04-03T14:27:18;103116.50;;;8.32;41.06
77062;BME280;65989;51.686;5.138;2023-04-03T14:29:44;103108.72;;;8.31;39.63
77062;BME280;65989;51.686;5.138;2023-04-03T14:32:12;103101.19;;;8.28;40.31
77062;BME280;65989;51.686;5.138;2023-04-03T14:34:38;103102.19;;;8.27;40.78
77062;BME280;65989;51.686;5.138;2023-04-03T14:37:04;103098.81;;;8.33;40.31
77062;BME280;65989;51.686;5.138;2023-04-03T14:39:30;103100.56;;;8.26;41.07